Centerville, Massachusetts
Current Conditions -  °F | °C
As of 3:56 PM on Saturday 22 Nov 2014 (Local Time) from KHYA Reporting Station
Clear Clear  
Wind Chill: 33°   Ceiling: Unl
Heat Index: 43°   Visibility: 10mi
Dew Point: 31°   Wind: 25mph
Humidity: 62%   Direction: 230°SW
Pressure: 30.19"   Gusts: 32mph
Location:  41.65°N, 70.35°W
Report Text: KHYA 222056Z 23022G28KT 10SM CLR 06/M01 A3019 RMK AO2 PK WND 23030/2005 SLP223 T00611006 56018
Loading
Personal Weather Stations






























Interactive Weather Map New forecast layout! Learn more

10-Day Weather Forecast

Advertisements
Track Severe Weather on mobile